createdAt,value
2024-02-13T00:02:14.942Z,3.93
2024-02-13T00:04:44.324Z,4.13
2024-02-13T00:07:14.895Z,4.18
2024-02-13T00:09:45.497Z,4.31
2024-02-13T00:12:15.002Z,4.35
2024-02-13T00:14:48.121Z,4.39
2024-02-13T00:17:17.834Z,4.44
2024-02-13T00:19:47.286Z,4.47
2024-02-13T00:22:17.842Z,4.26
2024-02-13T00:24:50.389Z,4.29
2024-02-13T00:27:20.043Z,4.38
2024-02-13T00:29:50.936Z,4.44
2024-02-13T00:32:20.468Z,4.39
2024-02-13T00:34:50.889Z,4.44
2024-02-13T00:37:21.449Z,4.34
2024-02-13T00:39:50.884Z,4.45
2024-02-13T00:42:20.025Z,4.46
2024-02-13T00:44:50.336Z,4.21
2024-02-13T00:47:20.134Z,4.02
2024-02-13T00:49:49.621Z,3.97
2024-02-13T00:52:20.084Z,4.04
2024-02-13T00:54:50.804Z,4.02
2024-02-13T00:57:23.227Z,3.97
2024-02-13T00:59:59.046Z,3.96
2024-02-13T01:02:37.528Z,4.05
2024-02-13T01:05:10.649Z,3.99
2024-02-13T01:07:41.122Z,3.71
2024-02-13T01:10:11.231Z,3.82
2024-02-13T01:12:40.435Z,3.87
2024-02-13T01:15:10.473Z,3.77
2024-02-13T01:17:39.710Z,3.69
2024-02-13T01:20:12.625Z,3.63
2024-02-13T01:22:43.339Z,3.49
2024-02-13T01:25:15.459Z,3.58
2024-02-13T01:27:44.752Z,3.62
2024-02-13T01:30:16.153Z,3.81
2024-02-13T01:32:45.436Z,3.57
2024-02-13T01:35:17.486Z,3.41
2024-02-13T01:37:48.573Z,3.62
2024-02-13T01:40:18.771Z,3.56
2024-02-13T01:42:50.027Z,3.62
2024-02-13T01:45:20.146Z,3.33
2024-02-13T01:47:49.633Z,3.30
2024-02-13T01:50:21.797Z,3.34
2024-02-13T01:52:53.958Z,3.51
2024-02-13T01:55:26.558Z,3.50
2024-02-13T01:58:03.204Z,3.55
2024-02-13T02:00:35.404Z,3.59
2024-02-13T02:03:05.967Z,3.41
2024-02-13T02:05:35.593Z,3.33
2024-02-13T02:08:06.593Z,3.17
2024-02-13T02:10:36.217Z,3.39
2024-02-13T02:13:10.998Z,3.49
2024-02-13T02:15:43.680Z,3.36
2024-02-13T02:18:13.829Z,3.51
2024-02-13T02:20:43.418Z,3.45
2024-02-13T02:23:14.284Z,3.41
2024-02-13T02:25:45.069Z,3.41
2024-02-13T02:28:16.537Z,3.53
2024-02-13T02:30:46.556Z,3.59
2024-02-13T02:33:16.356Z,3.48
2024-02-13T02:35:45.883Z,3.39
2024-02-13T02:38:15.664Z,3.35
2024-02-13T02:40:46.415Z,3.18
2024-02-13T02:43:15.584Z,3.06
2024-02-13T02:45:46.483Z,3.27
2024-02-13T02:48:17.940Z,3.13
2024-02-13T02:50:47.760Z,3.04
2024-02-13T02:53:19.996Z,3.07
2024-02-13T02:55:52.540Z,3.15
2024-02-13T02:58:22.201Z,3.16
2024-02-13T03:00:52.042Z,3.21
2024-02-13T03:03:22.865Z,3.21
2024-02-13T03:05:53.479Z,3.26
2024-02-13T03:08:23.103Z,3.23
2024-02-13T03:10:54.153Z,3.27
2024-02-13T03:13:23.370Z,3.38
2024-02-13T03:15:52.768Z,3.16
2024-02-13T03:18:25.964Z,3.28
2024-02-13T03:20:55.599Z,3.25
2024-02-13T03:23:24.734Z,3.13
2024-02-13T03:25:55.542Z,3.19
2024-02-13T03:28:24.831Z,3.16
2024-02-13T03:30:55.527Z,3.27
2024-02-13T03:33:25.844Z,3.14
2024-02-13T03:35:55.587Z,3.09
2024-02-13T03:38:24.700Z,3.18
2024-02-13T03:40:55.464Z,3.34
2024-02-13T03:43:24.669Z,3.14
2024-02-13T03:45:54.498Z,3.18
2024-02-13T03:48:23.883Z,2.93
2024-02-13T03:50:53.689Z,3.08
2024-02-13T03:53:22.768Z,3.16
2024-02-13T03:55:52.261Z,3.23
2024-02-13T03:58:22.747Z,3.25
2024-02-13T04:00:52.328Z,3.12
2024-02-13T04:03:21.416Z,3.17
2024-02-13T04:05:51.805Z,3.16
2024-02-13T04:08:21.050Z,3.06
2024-02-13T04:10:50.744Z,3.10
2024-02-13T04:13:21.327Z,3.17
2024-02-13T04:15:52.740Z,3.14
2024-02-13T04:18:23.875Z,3.20
2024-02-13T04:20:53.372Z,3.23
2024-02-13T04:23:22.534Z,3.32
2024-02-13T04:25:51.988Z,3.22
2024-02-13T04:28:24.050Z,3.32
2024-02-13T04:30:53.702Z,3.35
2024-02-13T04:33:22.879Z,3.43
2024-02-13T04:35:52.273Z,3.46
2024-02-13T04:38:21.842Z,3.39
2024-02-13T04:40:51.762Z,3.44
2024-02-13T04:43:22.461Z,3.26
2024-02-13T04:45:51.876Z,3.24
2024-02-13T04:48:23.098Z,3.29
2024-02-13T04:50:54.258Z,3.29
2024-02-13T04:53:23.553Z,3.08
2024-02-13T04:55:57.490Z,3.28
2024-02-13T04:58:42.898Z,3.41
2024-02-13T05:01:15.939Z,3.49
2024-02-13T05:04:05.518Z,3.45
2024-02-13T05:06:52.089Z,3.33
2024-02-13T05:09:21.312Z,3.36
2024-02-13T05:11:50.768Z,3.43
2024-02-13T05:14:21.481Z,3.45
2024-02-13T05:16:50.968Z,3.45
2024-02-13T05:19:20.148Z,3.50
2024-02-13T05:21:51.978Z,3.59
2024-02-13T05:24:21.276Z,3.42
2024-02-13T05:26:50.730Z,3.52
2024-02-13T05:29:21.342Z,3.51
2024-02-13T05:31:52.455Z,3.63
2024-02-13T05:34:21.845Z,3.69
2024-02-13T05:36:51.707Z,3.65
2024-02-13T05:39:20.882Z,3.62
2024-02-13T05:41:50.413Z,3.62
2024-02-13T05:44:20.936Z,3.62
2024-02-13T05:46:50.463Z,3.64
2024-02-13T05:49:19.619Z,3.69
2024-02-13T05:51:49.381Z,3.70
2024-02-13T05:54:18.712Z,3.67
2024-02-13T05:56:48.978Z,3.55
2024-02-13T05:59:19.373Z,3.41
2024-02-13T06:01:50.511Z,3.33
2024-02-13T06:04:19.753Z,3.59
2024-02-13T06:06:49.256Z,3.65
2024-02-13T06:09:22.430Z,3.51
2024-02-13T06:11:51.964Z,3.48
2024-02-13T06:14:21.228Z,3.68
2024-02-13T06:16:52.024Z,3.70
2024-02-13T06:19:21.377Z,3.52
2024-02-13T06:21:51.282Z,3.49
2024-02-13T06:24:20.706Z,3.63
2024-02-13T06:26:51.236Z,3.55
2024-02-13T06:29:21.456Z,3.62
2024-02-13T06:31:56.095Z,3.47
2024-02-13T06:34:25.511Z,3.49
2024-02-13T06:36:54.972Z,3.55
2024-02-13T06:39:26.849Z,3.44
2024-02-13T06:41:56.423Z,3.55
2024-02-13T06:44:25.648Z,3.47
2024-02-13T06:46:56.790Z,3.48
2024-02-13T06:49:27.589Z,3.62
2024-02-13T06:51:58.489Z,3.53
2024-02-13T06:54:27.557Z,3.62
2024-02-13T06:56:57.016Z,3.51
2024-02-13T06:59:28.609Z,3.60
2024-02-13T07:02:01.132Z,3.74
2024-02-13T07:04:30.713Z,3.53
2024-02-13T07:07:13.794Z,3.71
2024-02-13T07:09:53.833Z,3.64
2024-02-13T07:12:23.723Z,3.66
2024-02-13T07:14:53.465Z,3.74
2024-02-13T07:17:24.486Z,3.74
2024-02-13T07:19:54.648Z,3.76
2024-02-13T07:22:23.953Z,3.73
2024-02-13T07:24:53.028Z,3.64
2024-02-13T07:27:22.676Z,3.64
2024-02-13T07:29:51.978Z,3.81
2024-02-13T07:32:22.101Z,3.79
2024-02-13T07:34:53.577Z,3.75
2024-02-13T07:37:23.124Z,3.82
2024-02-13T07:39:52.193Z,3.80
2024-02-13T07:42:22.502Z,3.76
2024-02-13T07:44:52.761Z,3.80
2024-02-13T07:47:23.363Z,3.88
2024-02-13T07:49:54.446Z,3.83
2024-02-13T07:52:24.143Z,3.84
2024-02-13T07:54:53.470Z,3.95
2024-02-13T07:57:23.226Z,3.96
2024-02-13T07:59:56.404Z,4.04
2024-02-13T08:02:26.627Z,3.89
2024-02-13T08:04:57.214Z,3.92
2024-02-13T08:07:29.073Z,4.05
2024-02-13T08:09:58.555Z,4.03
2024-02-13T08:12:28.129Z,4.01
2024-02-13T08:14:59.230Z,4.00
2024-02-13T08:17:28.932Z,3.94
2024-02-13T08:20:00.569Z,3.94
2024-02-13T08:22:30.172Z,3.93
2024-02-13T08:25:02.213Z,3.93
2024-02-13T08:27:31.928Z,3.93
2024-02-13T08:30:01.056Z,4.06
2024-02-13T08:32:32.628Z,4.03
2024-02-13T08:35:03.307Z,4.08
2024-02-13T08:37:32.879Z,4.20
2024-02-13T08:40:01.949Z,4.11
2024-02-13T08:42:35.417Z,4.05
2024-02-13T08:45:03.847Z,4.10
2024-02-13T08:47:33.323Z,4.16
2024-02-13T08:50:04.381Z,4.17
2024-02-13T08:52:34.104Z,4.20
2024-02-13T08:55:03.232Z,4.19
2024-02-13T08:57:32.724Z,4.20
2024-02-13T09:00:01.846Z,4.23
2024-02-13T09:02:31.409Z,4.33
2024-02-13T09:05:00.620Z,4.29
2024-02-13T09:07:31.447Z,4.29
2024-02-13T09:10:00.687Z,4.31
2024-02-13T09:12:30.323Z,4.24
2024-02-13T09:14:59.979Z,4.25
2024-02-13T09:17:29.568Z,4.09
2024-02-13T09:19:59.577Z,4.27
2024-02-13T09:22:30.403Z,4.36
2024-02-13T09:24:59.295Z,4.33
2024-02-13T09:27:28.678Z,4.19
2024-02-13T09:29:57.891Z,4.28
2024-02-13T09:32:27.333Z,4.19
2024-02-13T09:34:56.534Z,4.24
2024-02-13T09:37:26.753Z,4.24
2024-02-13T09:39:57.234Z,4.15
2024-02-13T09:42:28.428Z,4.02
2024-02-13T09:44:58.222Z,4.10
2024-02-13T09:47:30.277Z,4.15
2024-02-13T09:50:01.860Z,4.15
2024-02-13T09:52:33.818Z,4.30
2024-02-13T09:55:04.983Z,4.46
2024-02-13T09:57:34.471Z,4.52
2024-02-13T10:00:03.730Z,4.62
2024-02-13T10:02:34.484Z,4.68
2024-02-13T10:05:03.726Z,4.77
2024-02-13T10:07:35.284Z,4.86
2024-02-13T10:10:09.737Z,4.85
2024-02-13T10:12:40.832Z,4.90
2024-02-13T10:15:11.097Z,4.87
2024-02-13T10:17:41.651Z,4.93
2024-02-13T10:20:11.818Z,5.01
2024-02-13T10:22:46.292Z,4.99
2024-02-13T10:25:22.737Z,4.99
2024-02-13T10:27:55.784Z,5.02
2024-02-13T10:30:26.152Z,4.98
2024-02-13T10:32:55.806Z,5.03
2024-02-13T10:35:25.665Z,5.09
2024-02-13T10:37:55.128Z,5.12
2024-02-13T10:40:27.720Z,5.05
2024-02-13T10:42:58.129Z,5.03
2024-02-13T10:45:30.234Z,5.06
2024-02-13T10:48:05.194Z,5.09
2024-02-13T10:50:37.040Z,5.04
2024-02-13T10:53:07.284Z,5.14
2024-02-13T10:55:41.265Z,5.24
2024-02-13T10:58:24.057Z,5.33
2024-02-13T11:00:58.312Z,5.42
2024-02-13T11:03:28.480Z,5.44
2024-02-13T11:05:58.422Z,5.64
2024-02-13T11:08:29.761Z,5.77
2024-02-13T11:11:04.891Z,5.85
2024-02-13T11:13:36.257Z,6.17
2024-02-13T11:16:10.454Z,7.76
2024-02-13T11:18:49.604Z,7.36
2024-02-13T11:21:23.564Z,7.14
2024-02-13T11:23:54.642Z,7.07
2024-02-13T11:26:26.663Z,7.10
2024-02-13T11:28:56.717Z,6.97
2024-02-13T11:31:28.045Z,6.91
2024-02-13T11:34:09.187Z,6.88
2024-02-13T11:36:39.225Z,6.81
2024-02-13T11:39:09.446Z,6.87
2024-02-13T11:41:40.199Z,7.09
2024-02-13T11:44:11.204Z,7.05
2024-02-13T11:46:51.764Z,6.92
2024-02-13T11:49:21.467Z,6.97
2024-02-13T11:51:50.765Z,6.98
2024-02-13T11:54:20.591Z,6.81
2024-02-13T11:59:23.179Z,6.62
2024-02-13T12:01:54.181Z,6.60
2024-02-13T12:04:23.633Z,6.54
2024-02-13T12:06:53.891Z,6.60
2024-02-13T12:09:26.883Z,6.52
2024-02-13T12:11:57.703Z,6.47
2024-02-13T12:14:30.573Z,6.43
2024-02-13T12:17:07.594Z,6.42
2024-02-13T12:19:41.593Z,6.35
2024-02-13T12:22:11.920Z,6.37
2024-02-13T12:24:43.030Z,6.49
2024-02-13T12:27:16.108Z,6.34
2024-02-13T12:29:46.042Z,6.28
2024-02-13T12:32:18.180Z,6.33
2024-02-13T12:34:50.750Z,6.27
2024-02-13T12:37:21.576Z,6.34
2024-02-13T12:39:51.557Z,6.43
2024-02-13T12:42:22.103Z,6.42
2024-02-13T12:44:51.857Z,6.44
2024-02-13T12:47:22.879Z,6.51
2024-02-13T12:49:52.518Z,6.59
2024-02-13T12:52:23.929Z,6.74
2024-02-13T12:54:53.637Z,6.58
2024-02-13T12:57:25.978Z,6.46
2024-02-13T12:59:57.120Z,6.49
2024-02-13T13:02:28.610Z,6.41
2024-02-13T13:04:58.740Z,6.50
2024-02-13T13:07:30.369Z,6.36
2024-02-13T13:09:59.840Z,6.24
2024-02-13T13:12:30.374Z,6.25
2024-02-13T13:15:04.045Z,6.30
2024-02-13T13:17:40.638Z,6.19
2024-02-13T13:20:11.740Z,6.19
2024-02-13T13:22:42.328Z,6.11
2024-02-13T13:25:13.537Z,6.17
2024-02-13T13:27:44.173Z,6.06
2024-02-13T13:30:17.016Z,6.05
2024-02-13T13:32:47.013Z,6.01
2024-02-13T13:35:21.445Z,5.84
2024-02-13T13:37:50.899Z,5.88
2024-02-13T13:40:23.062Z,5.88
2024-02-13T13:42:53.944Z,5.84
2024-02-13T13:45:23.347Z,5.77
2024-02-13T13:47:54.287Z,5.56
2024-02-13T13:50:25.586Z,5.68
2024-02-13T13:52:55.063Z,5.62
2024-02-13T13:55:24.552Z,5.65
2024-02-13T13:57:55.055Z,5.66
2024-02-13T14:00:24.660Z,5.82
2024-02-13T14:02:53.744Z,5.84
2024-02-13T14:05:24.866Z,5.71
2024-02-13T14:07:54.204Z,5.87
2024-02-13T14:10:23.677Z,5.73
2024-02-13T14:12:54.366Z,5.86
2024-02-13T14:15:24.022Z,5.85
2024-02-13T14:17:53.375Z,5.97
2024-02-13T14:20:22.908Z,6.09
2024-02-13T14:22:52.458Z,6.18
2024-02-13T14:25:22.185Z,6.19
2024-02-13T14:27:51.397Z,6.17
2024-02-13T14:30:22.464Z,6.20
2024-02-13T14:32:53.410Z,6.03
2024-02-13T14:35:23.094Z,6.04
2024-02-13T14:37:53.227Z,5.99
2024-02-13T14:40:23.031Z,6.14
2024-02-13T14:42:52.537Z,6.12
2024-02-13T14:45:23.312Z,6.04
2024-02-13T14:47:53.255Z,5.96
2024-02-13T14:50:26.194Z,5.95
2024-02-13T14:52:56.031Z,5.97
2024-02-13T14:55:26.550Z,5.99
2024-02-13T14:58:06.427Z,5.97
2024-02-13T15:00:45.763Z,6.04
2024-02-13T15:03:15.079Z,5.94
2024-02-13T15:05:44.752Z,5.96
2024-02-13T15:08:17.193Z,5.98
2024-02-13T15:10:47.287Z,5.86
2024-02-13T15:13:17.137Z,5.78
2024-02-13T15:15:50.092Z,5.66
2024-02-13T15:18:19.605Z,5.59
2024-02-13T15:20:49.496Z,5.73
2024-02-13T15:23:18.629Z,5.66
2024-02-13T15:25:48.164Z,5.55
2024-02-13T15:28:17.536Z,5.32
2024-02-13T15:30:48.317Z,5.38
2024-02-13T15:33:17.547Z,5.36
2024-02-13T15:35:53.546Z,5.38
2024-02-13T15:38:40.060Z,5.40
2024-02-13T15:41:26.832Z,5.34
2024-02-13T15:44:13.521Z,5.34
2024-02-13T15:47:06.049Z,5.42
2024-02-13T15:49:36.475Z,5.37
2024-02-13T15:52:07.191Z,5.36
2024-02-13T15:54:37.268Z,5.46
2024-02-13T15:57:09.857Z,5.45
2024-02-13T15:59:39.337Z,5.42
2024-02-13T16:02:11.368Z,5.47
2024-02-13T16:04:40.575Z,5.52
2024-02-13T16:07:11.231Z,5.42
2024-02-13T16:09:42.858Z,5.44
2024-02-13T16:12:12.433Z,5.46
2024-02-13T16:14:42.666Z,5.31
2024-02-13T16:17:13.525Z,5.21
2024-02-13T16:19:42.814Z,5.29
2024-02-13T16:22:12.506Z,5.28
2024-02-13T16:24:41.635Z,5.28
2024-02-13T16:27:11.094Z,5.15
2024-02-13T16:29:40.998Z,5.20
2024-02-13T16:32:13.082Z,5.27
2024-02-13T16:34:45.527Z,5.30
2024-02-13T16:37:15.916Z,5.26
2024-02-13T16:39:45.118Z,5.28
2024-02-13T16:42:14.498Z,5.24
2024-02-13T16:44:44.911Z,5.18
2024-02-13T16:47:14.416Z,5.18
2024-02-13T16:49:45.681Z,5.11
2024-02-13T16:52:15.143Z,5.19
2024-02-13T16:54:44.332Z,5.11
2024-02-13T16:57:14.773Z,5.13
2024-02-13T16:59:43.916Z,5.15
2024-02-13T17:02:13.408Z,5.18
2024-02-13T17:04:44.513Z,5.16
2024-02-13T17:07:15.451Z,5.20
2024-02-13T17:09:45.448Z,5.16
2024-02-13T17:12:14.712Z,5.01
2024-02-13T17:14:43.901Z,5.08
2024-02-13T17:17:17.516Z,5.10
2024-02-13T17:19:47.925Z,5.12
2024-02-13T17:22:18.769Z,5.11
2024-02-13T17:24:48.648Z,5.11
2024-02-13T17:27:18.137Z,5.11
2024-02-13T17:29:47.557Z,5.07
2024-02-13T17:32:16.967Z,5.03
2024-02-13T17:34:46.105Z,4.99
2024-02-13T17:37:17.199Z,4.98
2024-02-13T17:39:46.369Z,4.96
2024-02-13T17:42:15.818Z,4.95
2024-02-13T17:44:44.997Z,4.93
2024-02-13T17:47:14.399Z,4.89
2024-02-13T17:49:43.673Z,4.85
2024-02-13T17:52:13.276Z,4.76
2024-02-13T17:54:44.014Z,4.74
2024-02-13T17:57:13.420Z,4.67
2024-02-13T17:59:42.529Z,4.66
2024-02-13T18:02:11.947Z,4.68
2024-02-13T18:04:41.085Z,4.65
2024-02-13T18:07:13.733Z,4.50
2024-02-13T18:09:44.754Z,4.44
2024-02-13T18:12:14.178Z,4.45
2024-02-13T18:14:43.683Z,4.45
2024-02-13T18:17:14.438Z,4.49
2024-02-13T18:19:43.624Z,4.58
2024-02-13T18:22:13.228Z,4.57
2024-02-13T18:24:43.743Z,4.61
2024-02-13T18:27:14.770Z,4.61
2024-02-13T18:29:44.127Z,4.62
2024-02-13T18:32:13.561Z,4.61
2024-02-13T18:34:46.000Z,4.64
2024-02-13T18:37:15.617Z,4.64
2024-02-13T18:39:51.177Z,4.58
2024-02-13T18:42:21.503Z,4.48
2024-02-13T18:44:50.889Z,4.49
2024-02-13T18:47:20.316Z,4.39
2024-02-13T18:49:50.082Z,4.51
2024-02-13T18:52:19.475Z,4.57
2024-02-13T18:54:49.989Z,4.54
2024-02-13T18:57:19.531Z,4.45
2024-02-13T18:59:48.937Z,4.50
2024-02-13T19:02:20.991Z,4.45
2024-02-13T19:04:50.300Z,4.46
2024-02-13T19:07:19.668Z,4.38
2024-02-13T19:09:50.176Z,4.45
2024-02-13T19:12:19.575Z,4.42
2024-02-13T19:14:48.730Z,4.38
2024-02-13T19:17:19.928Z,4.36
2024-02-13T19:19:50.397Z,4.42
2024-02-13T19:22:19.873Z,4.38
2024-02-13T19:24:50.362Z,4.33
2024-02-13T19:27:19.804Z,4.30
2024-02-13T19:29:49.290Z,4.19
2024-02-13T19:32:18.682Z,4.30
2024-02-13T19:34:47.880Z,4.29
2024-02-13T19:37:17.257Z,4.33
2024-02-13T19:39:46.769Z,4.24
2024-02-13T19:42:18.335Z,4.28
2024-02-13T19:44:47.505Z,4.27
2024-02-13T19:47:17.307Z,4.26
2024-02-13T19:49:46.526Z,4.19
2024-02-13T19:52:16.054Z,4.20
2024-02-13T19:54:45.210Z,4.25
2024-02-13T19:57:14.992Z,4.23
2024-02-13T19:59:47.394Z,4.15
2024-02-13T20:02:20.325Z,4.00
2024-02-13T20:04:50.719Z,4.02
2024-02-13T20:07:20.193Z,4.05
2024-02-13T20:09:49.269Z,4.09
2024-02-13T20:12:21.421Z,4.03
2024-02-13T20:14:53.023Z,4.13
2024-02-13T20:17:22.647Z,4.05
2024-02-13T20:19:53.216Z,4.10
2024-02-13T20:22:22.888Z,4.07
2024-02-13T20:24:52.142Z,4.12
2024-02-13T20:27:21.842Z,4.07
2024-02-13T20:29:53.003Z,4.08
2024-02-13T20:32:22.543Z,4.06
2024-02-13T20:34:51.718Z,4.02
2024-02-13T20:37:21.670Z,3.97
2024-02-13T20:39:50.798Z,3.97
2024-02-13T20:42:22.165Z,4.03
2024-02-13T20:44:55.477Z,4.03
2024-02-13T20:47:27.714Z,4.00
2024-02-13T20:49:57.019Z,3.65
2024-02-13T20:52:29.520Z,3.87
2024-02-13T20:54:58.731Z,3.84
2024-02-13T20:57:28.106Z,4.01
2024-02-13T20:59:58.656Z,4.10
2024-02-13T21:02:29.583Z,4.06
2024-02-13T21:04:59.791Z,4.00
2024-02-13T21:07:29.289Z,3.92
2024-02-13T21:09:58.390Z,3.86
2024-02-13T21:12:29.206Z,3.97
2024-02-13T21:14:59.844Z,3.96
2024-02-13T21:17:30.263Z,4.00
2024-02-13T21:20:01.514Z,4.18
2024-02-13T21:22:48.666Z,4.15
2024-02-13T21:25:18.361Z,4.21
2024-02-13T21:27:47.780Z,4.11
2024-02-13T21:30:18.774Z,4.24
2024-02-13T21:32:48.666Z,4.34
2024-02-13T21:35:18.283Z,4.37
2024-02-13T21:37:47.817Z,4.42
2024-02-13T21:40:17.058Z,4.22
2024-02-13T21:42:47.903Z,4.23
2024-02-13T21:45:18.436Z,4.25
2024-02-13T21:47:48.119Z,4.36
2024-02-13T21:50:19.176Z,4.36
2024-02-13T21:52:48.892Z,4.35
2024-02-13T21:55:17.982Z,4.33
2024-02-13T21:57:47.377Z,4.38
2024-02-13T22:00:18.944Z,4.27
2024-02-13T22:02:48.494Z,4.39
2024-02-13T22:05:17.907Z,4.32
2024-02-13T22:07:47.325Z,4.33
2024-02-13T22:10:16.394Z,4.43
2024-02-13T22:12:47.313Z,4.38
2024-02-13T22:15:19.901Z,4.37
2024-02-13T22:17:49.724Z,4.33
2024-02-13T22:20:19.113Z,4.33
2024-02-13T22:22:48.540Z,4.45
2024-02-13T22:25:19.617Z,4.31
2024-02-13T22:27:49.077Z,4.35
2024-02-13T22:30:19.985Z,4.28
2024-02-13T22:32:50.327Z,4.31
2024-02-13T22:35:19.628Z,4.28
2024-02-13T22:37:49.498Z,4.34
2024-02-13T22:40:19.115Z,4.26
2024-02-13T22:42:48.585Z,4.37
2024-02-13T22:45:19.252Z,4.33
2024-02-13T22:48:00.092Z,4.32
2024-02-13T22:50:29.588Z,4.43
2024-02-13T22:52:59.962Z,4.39
2024-02-13T22:55:30.084Z,4.22
2024-02-13T22:57:59.765Z,4.35
2024-02-13T23:00:50.542Z,4.39
2024-02-13T23:03:20.923Z,4.44
2024-02-13T23:05:55.232Z,4.49
2024-02-13T23:08:27.528Z,4.49
2024-02-13T23:10:57.415Z,4.53
2024-02-13T23:13:33.455Z,4.50
2024-02-13T23:16:09.427Z,4.51
2024-02-13T23:18:39.202Z,4.51
2024-02-13T23:21:08.726Z,4.47
2024-02-13T23:23:38.291Z,4.33
2024-02-13T23:26:09.126Z,4.43
2024-02-13T23:28:48.782Z,4.45
2024-02-13T23:31:26.746Z,4.30
2024-02-13T23:33:56.423Z,4.43
2024-02-13T23:36:26.377Z,4.49
2024-02-13T23:38:55.867Z,4.51
2024-02-13T23:41:25.030Z,4.46
2024-02-13T23:43:54.469Z,4.44
2024-02-13T23:46:23.566Z,4.50
2024-02-13T23:48:55.831Z,4.52
2024-02-13T23:51:25.102Z,4.52
2024-02-13T23:53:55.017Z,4.54
2024-02-13T23:56:24.633Z,4.51
2024-02-13T23:58:54.188Z,4.43
